Airport View

Enter AWOS ICAO identifier for current METAR.

ex. KFNL

KFDW 022305Z AUTO 26005KT 10SM CLR 27/16 A3008 RMK AO1

2 Jun 2020 22:55

Frequency: 119.075

Phone: 803-712-2577

Other Area AWOS: KCUB - KCAE - KEOE - KCDN

TAF AMD KCUB 022037Z 0221/0318 22006KT P6SM SCT050 FM030100 VRB03KT P6SM FEW250 FM031400 24006KT P6SM FEW050 SCT250